KBUF/BUF METAR and TAF weather

Enter ICAO airport designator
Station Type Date Time Source
KBUF METAR 2022/07/01 00:54 UTC NOAA

KBUF 010054Z 21007KT 10SM FEW070 FEW220 BKN270 24/15 A3005 RMK AO2 SLP171 T02390150


Station Type Date Time Source
KBUF Decoded METAR 2022/07/01 00:54 UTC NOAA

GREATER BUFFALO INTERNATIONAL AIRPORT , NY, United States (KBUF) 42-56N 078-44W 225M
Jun 30, 2022 - 08:54 PM EDT / 2022.07.01 0054 UTC
Wind: from the SSW (210 degrees) at 8 MPH (7 KT):0
Visibility: 10 mile(s):0
Sky conditions: mostly cloudy
Temperature: 75.0 F (23.9 C)
Dew Point: 59.0 F (15.0 C)
Relative Humidity: 57%
Pressure (altimeter): 30.05 in. Hg (1017 hPa)
ob: KBUF 010054Z 21007KT 10SM FEW070 FEW220 BKN270 24/15 A3005 RMK AO2 SLP171 T02390150
cycle: 1

Station Type Date Time Source
KBUF TAF 2022/06/30 21:09 UTC NOAA

TAF
AMD KBUF 302106Z 3021/0118 22010G17KT P6SM FEW060 SCT250
FM302300 23009KT P6SM FEW250
FM011200 21010G20KT P6SM SCT250
FM011700 24016G26KT P6SM BKN250

Example: see airport list